sensor_id;sensor_type;location;lat;lon;timestamp;P1;durP1;ratioP1;P2;durP2;ratioP2
4837;SDS011;2433;48.768;9.154;2023-03-29T00:01:16;4.03;;;1.80;;
4837;SDS011;2433;48.768;9.154;2023-03-29T00:03:42;2.37;;;1.70;;
4837;SDS011;2433;48.768;9.154;2023-03-29T00:06:09;2.70;;;1.83;;
4837;SDS011;2433;48.768;9.154;2023-03-29T00:08:39;4.43;;;2.00;;
4837;SDS011;2433;48.768;9.154;2023-03-29T00:11:06;1.87;;;1.73;;
4837;SDS011;2433;48.768;9.154;2023-03-29T00:13:33;3.47;;;2.27;;
4837;SDS011;2433;48.768;9.154;2023-03-29T00:15:59;2.20;;;1.83;;
4837;SDS011;2433;48.768;9.154;2023-03-29T00:18:25;2.13;;;1.93;;
4837;SDS011;2433;48.768;9.154;2023-03-29T00:20:57;2.30;;;2.03;;
4837;SDS011;2433;48.768;9.154;2023-03-29T00:23:23;2.10;;;1.90;;
4837;SDS011;2433;48.768;9.154;2023-03-29T00:25:49;1.50;;;1.40;;
4837;SDS011;2433;48.768;9.154;2023-03-29T00:28:17;2.90;;;2.33;;
4837;SDS011;2433;48.768;9.154;2023-03-29T00:30:43;2.43;;;1.80;;
4837;SDS011;2433;48.768;9.154;2023-03-29T00:33:08;3.13;;;1.97;;
4837;SDS011;2433;48.768;9.154;2023-03-29T00:35:37;3.40;;;2.00;;
4837;SDS011;2433;48.768;9.154;2023-03-29T00:38:03;2.50;;;1.63;;
4837;SDS011;2433;48.768;9.154;2023-03-29T00:40:31;1.77;;;1.63;;
4837;SDS011;2433;48.768;9.154;2023-03-29T00:42:57;2.30;;;1.93;;
4837;SDS011;2433;48.768;9.154;2023-03-29T00:45:23;1.77;;;1.53;;
4837;SDS011;2433;48.768;9.154;2023-03-29T00:47:59;3.40;;;2.63;;
4837;SDS011;2433;48.768;9.154;2023-03-29T00:53:16;2.87;;;2.30;;
4837;SDS011;2433;48.768;9.154;2023-03-29T00:56:06;2.97;;;2.33;;
4837;SDS011;2433;48.768;9.154;2023-03-29T00:58:43;2.43;;;2.07;;
4837;SDS011;2433;48.768;9.154;2023-03-29T01:01:15;4.03;;;2.27;;
4837;SDS011;2433;48.768;9.154;2023-03-29T01:03:47;3.33;;;2.03;;
4837;SDS011;2433;48.768;9.154;2023-03-29T01:06:15;1.80;;;1.70;;
4837;SDS011;2433;48.768;9.154;2023-03-29T01:08:45;3.17;;;2.40;;
4837;SDS011;2433;48.768;9.154;2023-03-29T01:11:16;3.00;;;1.50;;
4837;SDS011;2433;48.768;9.154;2023-03-29T01:13:44;2.37;;;1.80;;
4837;SDS011;2433;48.768;9.154;2023-03-29T01:16:14;3.53;;;2.10;;
4837;SDS011;2433;48.768;9.154;2023-03-29T01:18:43;3.97;;;1.83;;
4837;SDS011;2433;48.768;9.154;2023-03-29T01:21:24;3.80;;;1.90;;
4837;SDS011;2433;48.768;9.154;2023-03-29T01:26:54;2.33;;;1.67;;
4837;SDS011;2433;48.768;9.154;2023-03-29T01:29:30;2.10;;;1.83;;
4837;SDS011;2433;48.768;9.154;2023-03-29T01:32:03;2.57;;;1.90;;
4837;SDS011;2433;48.768;9.154;2023-03-29T01:37:13;3.30;;;2.00;;
4837;SDS011;2433;48.768;9.154;2023-03-29T01:40:07;2.00;;;1.67;;
4837;SDS011;2433;48.768;9.154;2023-03-29T01:45:30;3.07;;;1.83;;
4837;SDS011;2433;48.768;9.154;2023-03-29T01:48:05;2.07;;;1.70;;
4837;SDS011;2433;48.768;9.154;2023-03-29T01:56:12;3.90;;;1.83;;
4837;SDS011;2433;48.768;9.154;2023-03-29T01:58:42;5.23;;;2.20;;
4837;SDS011;2433;48.768;9.154;2023-03-29T02:01:09;1.73;;;1.63;;
4837;SDS011;2433;48.768;9.154;2023-03-29T02:03:39;3.07;;;2.50;;
4837;SDS011;2433;48.768;9.154;2023-03-29T02:06:10;2.00;;;1.60;;
4837;SDS011;2433;48.768;9.154;2023-03-29T02:08:38;3.17;;;2.08;;
4837;SDS011;2433;48.768;9.154;2023-03-29T02:11:05;2.00;;;1.70;;
4837;SDS011;2433;48.768;9.154;2023-03-29T02:13:32;2.20;;;2.00;;
4837;SDS011;2433;48.768;9.154;2023-03-29T02:15:58;1.50;;;1.02;;
4837;SDS011;2433;48.768;9.154;2023-03-29T02:18:30;2.15;;;1.90;;
4837;SDS011;2433;48.768;9.154;2023-03-29T02:20:56;4.93;;;1.80;;
4837;SDS011;2433;48.768;9.154;2023-03-29T02:23:23;3.03;;;2.22;;
4837;SDS011;2433;48.768;9.154;2023-03-29T02:25:52;2.55;;;1.77;;
4837;SDS011;2433;48.768;9.154;2023-03-29T02:28:19;2.72;;;1.65;;
4837;SDS011;2433;48.768;9.154;2023-03-29T02:30:56;1.80;;;1.65;;
4837;SDS011;2433;48.768;9.154;2023-03-29T02:36:33;2.07;;;1.80;;
4837;SDS011;2433;48.768;9.154;2023-03-29T02:39:04;2.70;;;2.20;;
4837;SDS011;2433;48.768;9.154;2023-03-29T02:41:32;2.13;;;2.03;;
4837;SDS011;2433;48.768;9.154;2023-03-29T02:43:59;4.57;;;1.93;;
4837;SDS011;2433;48.768;9.154;2023-03-29T02:46:25;2.80;;;2.00;;
4837;SDS011;2433;48.768;9.154;2023-03-29T02:48:52;3.27;;;2.40;;
4837;SDS011;2433;48.768;9.154;2023-03-29T02:51:23;3.00;;;1.97;;
4837;SDS011;2433;48.768;9.154;2023-03-29T02:54:07;2.55;;;2.20;;
4837;SDS011;2433;48.768;9.154;2023-03-29T02:56:47;1.77;;;1.17;;
4837;SDS011;2433;48.768;9.154;2023-03-29T02:59:14;2.90;;;1.73;;
4837;SDS011;2433;48.768;9.154;2023-03-29T03:01:41;4.35;;;1.80;;
4837;SDS011;2433;48.768;9.154;2023-03-29T03:04:07;2.17;;;1.40;;
4837;SDS011;2433;48.768;9.154;2023-03-29T03:06:35;2.10;;;1.90;;
4837;SDS011;2433;48.768;9.154;2023-03-29T03:09:01;4.85;;;1.67;;
4837;SDS011;2433;48.768;9.154;2023-03-29T03:11:31;1.40;;;1.30;;
4837;SDS011;2433;48.768;9.154;2023-03-29T03:13:57;2.13;;;1.85;;
4837;SDS011;2433;48.768;9.154;2023-03-29T03:16:22;3.97;;;1.70;;
4837;SDS011;2433;48.768;9.154;2023-03-29T03:18:48;2.03;;;1.53;;
4837;SDS011;2433;48.768;9.154;2023-03-29T03:21:16;1.63;;;1.50;;
4837;SDS011;2433;48.768;9.154;2023-03-29T03:23:43;2.40;;;1.50;;
4837;SDS011;2433;48.768;9.154;2023-03-29T03:26:10;3.40;;;1.70;;
4837;SDS011;2433;48.768;9.154;2023-03-29T03:28:37;3.00;;;2.10;;
4837;SDS011;2433;48.768;9.154;2023-03-29T03:31:06;1.67;;;1.53;;
4837;SDS011;2433;48.768;9.154;2023-03-29T03:33:51;2.85;;;1.95;;
4837;SDS011;2433;48.768;9.154;2023-03-29T03:36:34;1.95;;;1.38;;
4837;SDS011;2433;48.768;9.154;2023-03-29T03:39:00;4.43;;;1.80;;
4837;SDS011;2433;48.768;9.154;2023-03-29T03:41:27;2.92;;;1.80;;
4837;SDS011;2433;48.768;9.154;2023-03-29T03:43:53;1.90;;;1.40;;
4837;SDS011;2433;48.768;9.154;2023-03-29T03:46:19;2.03;;;1.43;;
4837;SDS011;2433;48.768;9.154;2023-03-29T03:48:45;2.40;;;1.60;;
4837;SDS011;2433;48.768;9.154;2023-03-29T03:51:21;1.63;;;1.43;;
4837;SDS011;2433;48.768;9.154;2023-03-29T03:53:48;3.30;;;1.67;;
4837;SDS011;2433;48.768;9.154;2023-03-29T03:56:34;1.23;;;1.10;;
4837;SDS011;2433;48.768;9.154;2023-03-29T03:59:05;1.30;;;1.20;;
4837;SDS011;2433;48.768;9.154;2023-03-29T04:01:37;1.67;;;1.40;;
4837;SDS011;2433;48.768;9.154;2023-03-29T04:04:13;2.20;;;1.40;;
4837;SDS011;2433;48.768;9.154;2023-03-29T04:06:48;2.00;;;1.40;;
4837;SDS011;2433;48.768;9.154;2023-03-29T04:09:32;1.33;;;1.23;;
4837;SDS011;2433;48.768;9.154;2023-03-29T04:12:17;1.47;;;1.20;;
4837;SDS011;2433;48.768;9.154;2023-03-29T04:14:43;1.53;;;1.43;;
4837;SDS011;2433;48.768;9.154;2023-03-29T04:17:19;1.63;;;1.53;;
4837;SDS011;2433;48.768;9.154;2023-03-29T04:19:56;1.33;;;1.23;;
4837;SDS011;2433;48.768;9.154;2023-03-29T04:22:26;2.03;;;1.40;;
4837;SDS011;2433;48.768;9.154;2023-03-29T04:24:54;1.60;;;1.33;;
4837;SDS011;2433;48.768;9.154;2023-03-29T04:27:39;1.67;;;1.57;;
4837;SDS011;2433;48.768;9.154;2023-03-29T04:30:24;2.20;;;1.37;;
4837;SDS011;2433;48.768;9.154;2023-03-29T04:33:05;1.60;;;1.33;;
4837;SDS011;2433;48.768;9.154;2023-03-29T04:35:32;2.10;;;1.03;;
4837;SDS011;2433;48.768;9.154;2023-03-29T04:37:58;2.80;;;1.50;;
4837;SDS011;2433;48.768;9.154;2023-03-29T04:40:24;1.90;;;1.17;;
4837;SDS011;2433;48.768;9.154;2023-03-29T04:43:09;1.47;;;1.37;;
4837;SDS011;2433;48.768;9.154;2023-03-29T04:45:42;1.77;;;1.40;;
4837;SDS011;2433;48.768;9.154;2023-03-29T04:48:23;3.23;;;1.80;;
4837;SDS011;2433;48.768;9.154;2023-03-29T04:50:49;1.77;;;1.30;;
4837;SDS011;2433;48.768;9.154;2023-03-29T04:53:17;1.23;;;1.13;;
4837;SDS011;2433;48.768;9.154;2023-03-29T04:55:42;1.87;;;1.30;;
4837;SDS011;2433;48.768;9.154;2023-03-29T04:58:13;2.40;;;1.50;;
4837;SDS011;2433;48.768;9.154;2023-03-29T05:00:40;2.77;;;1.50;;
4837;SDS011;2433;48.768;9.154;2023-03-29T05:03:16;1.27;;;1.10;;
4837;SDS011;2433;48.768;9.154;2023-03-29T05:05:54;1.93;;;1.40;;
4837;SDS011;2433;48.768;9.154;2023-03-29T05:08:19;2.07;;;1.10;;
4837;SDS011;2433;48.768;9.154;2023-03-29T05:11:06;3.43;;;1.57;;
4837;SDS011;2433;48.768;9.154;2023-03-29T05:13:33;1.40;;;1.30;;
4837;SDS011;2433;48.768;9.154;2023-03-29T05:16:00;1.50;;;1.17;;
4837;SDS011;2433;48.768;9.154;2023-03-29T05:18:26;4.17;;;1.40;;
4837;SDS011;2433;48.768;9.154;2023-03-29T05:20:52;1.50;;;1.10;;
4837;SDS011;2433;48.768;9.154;2023-03-29T05:23:19;1.57;;;1.30;;
4837;SDS011;2433;48.768;9.154;2023-03-29T05:26:05;1.50;;;1.40;;
4837;SDS011;2433;48.768;9.154;2023-03-29T05:28:32;1.40;;;1.30;;
4837;SDS011;2433;48.768;9.154;2023-03-29T05:31:00;2.57;;;1.33;;
4837;SDS011;2433;48.768;9.154;2023-03-29T05:33:28;1.63;;;1.40;;
4837;SDS011;2433;48.768;9.154;2023-03-29T05:36:02;2.20;;;1.37;;
4837;SDS011;2433;48.768;9.154;2023-03-29T05:38:30;1.40;;;1.10;;
4837;SDS011;2433;48.768;9.154;2023-03-29T05:40:59;1.10;;;1.10;;
4837;SDS011;2433;48.768;9.154;2023-03-29T05:43:31;1.77;;;1.47;;
4837;SDS011;2433;48.768;9.154;2023-03-29T05:45:57;1.43;;;1.23;;
4837;SDS011;2433;48.768;9.154;2023-03-29T05:48:23;2.37;;;1.20;;
4837;SDS011;2433;48.768;9.154;2023-03-29T05:50:50;2.70;;;1.20;;
4837;SDS011;2433;48.768;9.154;2023-03-29T05:53:18;1.73;;;1.10;;
4837;SDS011;2433;48.768;9.154;2023-03-29T05:55:44;3.80;;;1.30;;
4837;SDS011;2433;48.768;9.154;2023-03-29T05:58:13;1.83;;;1.20;;
4837;SDS011;2433;48.768;9.154;2023-03-29T06:00:40;1.60;;;1.40;;
4837;SDS011;2433;48.768;9.154;2023-03-29T06:03:23;1.10;;;1.00;;
4837;SDS011;2433;48.768;9.154;2023-03-29T06:05:59;2.33;;;1.17;;
4837;SDS011;2433;48.768;9.154;2023-03-29T06:08:26;1.10;;;1.00;;
4837;SDS011;2433;48.768;9.154;2023-03-29T06:11:07;1.30;;;1.20;;
4837;SDS011;2433;48.768;9.154;2023-03-29T06:13:59;1.40;;;1.07;;
4837;SDS011;2433;48.768;9.154;2023-03-29T06:16:26;1.67;;;1.00;;
4837;SDS011;2433;48.768;9.154;2023-03-29T06:18:53;2.90;;;1.07;;
4837;SDS011;2433;48.768;9.154;2023-03-29T06:21:19;3.60;;;1.57;;
4837;SDS011;2433;48.768;9.154;2023-03-29T06:23:46;1.70;;;1.33;;
4837;SDS011;2433;48.768;9.154;2023-03-29T06:26:13;1.40;;;1.00;;
4837;SDS011;2433;48.768;9.154;2023-03-29T06:28:39;1.33;;;1.23;;
4837;SDS011;2433;48.768;9.154;2023-03-29T06:31:05;2.87;;;1.43;;
4837;SDS011;2433;48.768;9.154;2023-03-29T06:33:35;2.90;;;1.63;;
4837;SDS011;2433;48.768;9.154;2023-03-29T06:36:24;1.83;;;1.70;;
4837;SDS011;2433;48.768;9.154;2023-03-29T06:38:50;1.30;;;1.20;;
4837;SDS011;2433;48.768;9.154;2023-03-29T06:41:37;1.40;;;1.20;;
4837;SDS011;2433;48.768;9.154;2023-03-29T06:44:06;1.90;;;1.80;;
4837;SDS011;2433;48.768;9.154;2023-03-29T06:46:36;1.77;;;1.37;;
4837;SDS011;2433;48.768;9.154;2023-03-29T06:49:05;3.13;;;1.00;;
4837;SDS011;2433;48.768;9.154;2023-03-29T06:51:44;1.07;;;0.80;;
4837;SDS011;2433;48.768;9.154;2023-03-29T06:54:09;2.17;;;1.00;;
4837;SDS011;2433;48.768;9.154;2023-03-29T06:56:42;1.20;;;0.77;;
4837;SDS011;2433;48.768;9.154;2023-03-29T06:59:12;3.43;;;0.93;;
4837;SDS011;2433;48.768;9.154;2023-03-29T07:01:51;6.53;;;1.30;;
4837;SDS011;2433;48.768;9.154;2023-03-29T07:04:30;1.80;;;1.17;;
4837;SDS011;2433;48.768;9.154;2023-03-29T07:07:08;2.20;;;2.00;;
4837;SDS011;2433;48.768;9.154;2023-03-29T07:09:45;1.20;;;1.10;;
4837;SDS011;2433;48.768;9.154;2023-03-29T07:12:38;3.13;;;1.10;;
4837;SDS011;2433;48.768;9.154;2023-03-29T07:15:05;2.27;;;1.63;;
4837;SDS011;2433;48.768;9.154;2023-03-29T07:17:50;3.10;;;1.63;;
4837;SDS011;2433;48.768;9.154;2023-03-29T07:20:16;1.40;;;0.97;;
4837;SDS011;2433;48.768;9.154;2023-03-29T07:22:47;2.13;;;1.20;;
4837;SDS011;2433;48.768;9.154;2023-03-29T07:25:16;2.93;;;1.30;;
4837;SDS011;2433;48.768;9.154;2023-03-29T07:27:43;2.20;;;1.23;;
4837;SDS011;2433;48.768;9.154;2023-03-29T07:30:10;1.93;;;1.43;;
4837;SDS011;2433;48.768;9.154;2023-03-29T07:32:38;2.50;;;1.20;;
4837;SDS011;2433;48.768;9.154;2023-03-29T07:35:28;2.90;;;1.30;;
4837;SDS011;2433;48.768;9.154;2023-03-29T07:37:55;1.70;;;1.37;;
4837;SDS011;2433;48.768;9.154;2023-03-29T07:40:23;2.30;;;2.10;;
4837;SDS011;2433;48.768;9.154;2023-03-29T07:42:56;1.50;;;1.40;;
4837;SDS011;2433;48.768;9.154;2023-03-29T07:45:24;2.27;;;1.47;;
4837;SDS011;2433;48.768;9.154;2023-03-29T07:47:58;2.50;;;1.03;;
4837;SDS011;2433;48.768;9.154;2023-03-29T07:50:24;2.90;;;1.33;;
4837;SDS011;2433;48.768;9.154;2023-03-29T07:52:54;2.43;;;1.30;;
4837;SDS011;2433;48.768;9.154;2023-03-29T07:55:21;1.33;;;1.10;;
4837;SDS011;2433;48.768;9.154;2023-03-29T07:58:08;2.43;;;1.70;;
4837;SDS011;2433;48.768;9.154;2023-03-29T08:00:34;4.10;;;1.30;;
4837;SDS011;2433;48.768;9.154;2023-03-29T08:03:28;2.10;;;1.07;;
4837;SDS011;2433;48.768;9.154;2023-03-29T08:05:54;2.50;;;1.37;;
4837;SDS011;2433;48.768;9.154;2023-03-29T08:08:19;2.90;;;1.63;;
4837;SDS011;2433;48.768;9.154;2023-03-29T08:10:52;2.57;;;1.23;;
4837;SDS011;2433;48.768;9.154;2023-03-29T08:13:41;1.60;;;1.50;;
4837;SDS011;2433;48.768;9.154;2023-03-29T08:16:30;2.40;;;1.20;;
4837;SDS011;2433;48.768;9.154;2023-03-29T08:19:09;3.07;;;1.40;;
4837;SDS011;2433;48.768;9.154;2023-03-29T08:21:49;1.93;;;1.20;;
4837;SDS011;2433;48.768;9.154;2023-03-29T08:24:16;2.53;;;2.00;;
4837;SDS011;2433;48.768;9.154;2023-03-29T08:26:46;2.33;;;1.40;;
4837;SDS011;2433;48.768;9.154;2023-03-29T08:29:17;2.73;;;1.27;;
4837;SDS011;2433;48.768;9.154;2023-03-29T08:31:43;2.27;;;1.00;;
4837;SDS011;2433;48.768;9.154;2023-03-29T08:34:08;1.27;;;1.13;;
4837;SDS011;2433;48.768;9.154;2023-03-29T08:36:46;2.23;;;1.07;;
4837;SDS011;2433;48.768;9.154;2023-03-29T08:39:41;3.40;;;1.40;;
4837;SDS011;2433;48.768;9.154;2023-03-29T08:42:55;3.70;;;1.20;;
4837;SDS011;2433;48.768;9.154;2023-03-29T08:48:34;2.63;;;1.10;;
4837;SDS011;2433;48.768;9.154;2023-03-29T08:51:13;4.13;;;1.50;;
4837;SDS011;2433;48.768;9.154;2023-03-29T08:54:26;1.20;;;1.10;;
4837;SDS011;2433;48.768;9.154;2023-03-29T08:57:09;1.50;;;1.40;;
4837;SDS011;2433;48.768;9.154;2023-03-29T08:59:41;1.83;;;1.10;;
4837;SDS011;2433;48.768;9.154;2023-03-29T09:02:15;0.93;;;0.93;;
4837;SDS011;2433;48.768;9.154;2023-03-29T09:04:43;3.57;;;1.30;;
4837;SDS011;2433;48.768;9.154;2023-03-29T09:07:35;1.90;;;1.07;;
4837;SDS011;2433;48.768;9.154;2023-03-29T09:10:01;1.53;;;1.20;;
4837;SDS011;2433;48.768;9.154;2023-03-29T09:15:26;2.93;;;1.40;;
4837;SDS011;2433;48.768;9.154;2023-03-29T09:18:39;3.03;;;1.20;;
4837;SDS011;2433;48.768;9.154;2023-03-29T09:21:21;1.30;;;1.20;;
4837;SDS011;2433;48.768;9.154;2023-03-29T09:30:37;1.10;;;0.90;;
4837;SDS011;2433;48.768;9.154;2023-03-29T09:32:52;2.57;;;1.40;;
4837;SDS011;2433;48.768;9.154;2023-03-29T09:35:22;2.47;;;1.33;;
4837;SDS011;2433;48.768;9.154;2023-03-29T09:37:51;2.07;;;1.40;;
4837;SDS011;2433;48.768;9.154;2023-03-29T09:40:41;2.23;;;1.10;;
4837;SDS011;2433;48.768;9.154;2023-03-29T09:43:13;2.03;;;1.40;;
4837;SDS011;2433;48.768;9.154;2023-03-29T09:45:42;2.33;;;1.27;;
4837;SDS011;2433;48.768;9.154;2023-03-29T09:48:16;1.70;;;1.60;;
4837;SDS011;2433;48.768;9.154;2023-03-29T09:50:48;2.90;;;1.33;;
4837;SDS011;2433;48.768;9.154;2023-03-29T09:53:16;2.30;;;1.40;;
4837;SDS011;2433;48.768;9.154;2023-03-29T09:55:50;5.60;;;1.20;;
4837;SDS011;2433;48.768;9.154;2023-03-29T09:58:33;2.33;;;1.00;;
4837;SDS011;2433;48.768;9.154;2023-03-29T10:01:01;1.50;;;0.97;;
4837;SDS011;2433;48.768;9.154;2023-03-29T10:03:35;1.43;;;1.30;;
4837;SDS011;2433;48.768;9.154;2023-03-29T10:06:07;1.80;;;1.63;;
4837;SDS011;2433;48.768;9.154;2023-03-29T10:08:37;4.17;;;1.50;;
4837;SDS011;2433;48.768;9.154;2023-03-29T10:11:11;1.57;;;1.17;;
4837;SDS011;2433;48.768;9.154;2023-03-29T10:13:47;1.50;;;1.20;;
4837;SDS011;2433;48.768;9.154;2023-03-29T10:16:53;1.20;;;1.00;;
4837;SDS011;2433;48.768;9.154;2023-03-29T10:19:14;2.83;;;2.63;;
4837;SDS011;2433;48.768;9.154;2023-03-29T10:21:49;3.10;;;1.40;;
4837;SDS011;2433;48.768;9.154;2023-03-29T10:24:19;1.57;;;1.13;;
4837;SDS011;2433;48.768;9.154;2023-03-29T10:26:53;2.00;;;1.47;;
4837;SDS011;2433;48.768;9.154;2023-03-29T10:29:22;1.63;;;1.20;;
4837;SDS011;2433;48.768;9.154;2023-03-29T10:31:49;4.80;;;1.90;;
4837;SDS011;2433;48.768;9.154;2023-03-29T10:34:17;2.47;;;1.10;;
4837;SDS011;2433;48.768;9.154;2023-03-29T10:36:44;2.30;;;1.10;;
4837;SDS011;2433;48.768;9.154;2023-03-29T10:39:16;1.03;;;0.90;;
4837;SDS011;2433;48.768;9.154;2023-03-29T10:41:42;1.50;;;0.97;;
4837;SDS011;2433;48.768;9.154;2023-03-29T10:44:30;1.30;;;1.07;;
4837;SDS011;2433;48.768;9.154;2023-03-29T10:49:44;1.70;;;1.07;;
4837;SDS011;2433;48.768;9.154;2023-03-29T10:52:13;2.20;;;1.27;;
4837;SDS011;2433;48.768;9.154;2023-03-29T10:54:40;1.83;;;1.73;;
4837;SDS011;2433;48.768;9.154;2023-03-29T10:57:09;3.40;;;1.47;;
4837;SDS011;2433;48.768;9.154;2023-03-29T10:59:46;1.30;;;1.00;;
4837;SDS011;2433;48.768;9.154;2023-03-29T11:02:30;2.60;;;1.63;;
4837;SDS011;2433;48.768;9.154;2023-03-29T11:05:09;1.57;;;1.47;;
4837;SDS011;2433;48.768;9.154;2023-03-29T11:07:47;2.57;;;1.40;;
4837;SDS011;2433;48.768;9.154;2023-03-29T11:21:08;3.23;;;1.27;;
4837;SDS011;2433;48.768;9.154;2023-03-29T11:26:36;1.40;;;1.17;;
4837;SDS011;2433;48.768;9.154;2023-03-29T11:37:35;1.80;;;1.43;;
4837;SDS011;2433;48.768;9.154;2023-03-29T11:43:18;2.20;;;1.80;;
4837;SDS011;2433;48.768;9.154;2023-03-29T11:45:54;1.63;;;1.17;;
4837;SDS011;2433;48.768;9.154;2023-03-29T11:48:27;2.30;;;1.10;;
4837;SDS011;2433;48.768;9.154;2023-03-29T11:56:36;2.00;;;1.07;;
4837;SDS011;2433;48.768;9.154;2023-03-29T11:59:53;2.13;;;1.27;;
4837;SDS011;2433;48.768;9.154;2023-03-29T12:02:01;1.63;;;0.90;;
4837;SDS011;2433;48.768;9.154;2023-03-29T12:04:33;1.83;;;1.23;;
4837;SDS011;2433;48.768;9.154;2023-03-29T12:07:16;1.07;;;0.83;;
4837;SDS011;2433;48.768;9.154;2023-03-29T12:15:00;2.77;;;1.27;;
4837;SDS011;2433;48.768;9.154;2023-03-29T12:17:31;1.47;;;1.03;;
4837;SDS011;2433;48.768;9.154;2023-03-29T12:22:48;1.97;;;0.93;;
4837;SDS011;2433;48.768;9.154;2023-03-29T12:25:16;1.03;;;0.93;;
4837;SDS011;2433;48.768;9.154;2023-03-29T12:30:48;1.10;;;0.83;;
4837;SDS011;2433;48.768;9.154;2023-03-29T12:39:18;1.50;;;0.93;;
4837;SDS011;2433;48.768;9.154;2023-03-29T12:42:20;3.43;;;1.07;;
4837;SDS011;2433;48.768;9.154;2023-03-29T12:45:11;1.73;;;1.00;;
4837;SDS011;2433;48.768;9.154;2023-03-29T12:47:41;1.63;;;0.90;;
4837;SDS011;2433;48.768;9.154;2023-03-29T12:53:34;1.07;;;1.00;;
4837;SDS011;2433;48.768;9.154;2023-03-29T13:03:51;3.90;;;1.13;;
4837;SDS011;2433;48.768;9.154;2023-03-29T13:06:49;3.50;;;1.10;;
4837;SDS011;2433;48.768;9.154;2023-03-29T13:09:21;2.30;;;0.80;;
4837;SDS011;2433;48.768;9.154;2023-03-29T13:12:07;2.60;;;1.33;;
4837;SDS011;2433;48.768;9.154;2023-03-29T13:14:36;1.43;;;1.00;;
4837;SDS011;2433;48.768;9.154;2023-03-29T13:17:08;1.50;;;1.00;;
4837;SDS011;2433;48.768;9.154;2023-03-29T13:22:50;1.20;;;0.77;;
4837;SDS011;2433;48.768;9.154;2023-03-29T13:25:27;1.63;;;1.00;;
4837;SDS011;2433;48.768;9.154;2023-03-29T13:28:04;0.80;;;0.80;;
4837;SDS011;2433;48.768;9.154;2023-03-29T13:30:56;2.20;;;0.93;;
4837;SDS011;2433;48.768;9.154;2023-03-29T13:39:20;3.87;;;1.00;;
4837;SDS011;2433;48.768;9.154;2023-03-29T13:41:51;1.97;;;0.80;;
4837;SDS011;2433;48.768;9.154;2023-03-29T13:44:42;3.17;;;1.00;;
4837;SDS011;2433;48.768;9.154;2023-03-29T13:49:44;0.70;;;0.67;;
4837;SDS011;2433;48.768;9.154;2023-03-29T13:52:15;2.00;;;1.37;;
4837;SDS011;2433;48.768;9.154;2023-03-29T13:55:02;1.47;;;1.20;;
4837;SDS011;2433;48.768;9.154;2023-03-29T13:57:32;1.37;;;0.87;;
4837;SDS011;2433;48.768;9.154;2023-03-29T14:02:42;1.40;;;1.13;;
4837;SDS011;2433;48.768;9.154;2023-03-29T14:05:15;1.17;;;0.90;;
4837;SDS011;2433;48.768;9.154;2023-03-29T14:07:46;4.97;;;1.03;;
4837;SDS011;2433;48.768;9.154;2023-03-29T14:10:18;1.10;;;1.00;;
4837;SDS011;2433;48.768;9.154;2023-03-29T14:12:47;2.20;;;1.40;;
4837;SDS011;2433;48.768;9.154;2023-03-29T14:15:17;0.90;;;0.80;;
4837;SDS011;2433;48.768;9.154;2023-03-29T14:17:52;1.37;;;0.97;;
4837;SDS011;2433;48.768;9.154;2023-03-29T14:20:19;2.20;;;1.00;;
4837;SDS011;2433;48.768;9.154;2023-03-29T14:22:45;1.60;;;1.20;;
4837;SDS011;2433;48.768;9.154;2023-03-29T14:25:12;1.50;;;1.37;;
4837;SDS011;2433;48.768;9.154;2023-03-29T14:27:40;4.10;;;0.93;;
4837;SDS011;2433;48.768;9.154;2023-03-29T14:30:15;2.00;;;1.17;;
4837;SDS011;2433;48.768;9.154;2023-03-29T14:32:44;1.00;;;0.70;;
4837;SDS011;2433;48.768;9.154;2023-03-29T14:35:10;1.90;;;1.00;;
4837;SDS011;2433;48.768;9.154;2023-03-29T14:37:36;1.73;;;1.23;;
4837;SDS011;2433;48.768;9.154;2023-03-29T14:40:02;2.37;;;1.33;;
4837;SDS011;2433;48.768;9.154;2023-03-29T14:42:33;1.63;;;0.90;;
4837;SDS011;2433;48.768;9.154;2023-03-29T14:45:02;1.47;;;1.07;;
4837;SDS011;2433;48.768;9.154;2023-03-29T14:47:30;1.80;;;1.23;;
4837;SDS011;2433;48.768;9.154;2023-03-29T14:49:56;1.20;;;0.93;;
4837;SDS011;2433;48.768;9.154;2023-03-29T14:52:28;1.90;;;1.47;;
4837;SDS011;2433;48.768;9.154;2023-03-29T14:54:55;2.47;;;1.03;;
4837;SDS011;2433;48.768;9.154;2023-03-29T14:57:27;0.97;;;0.93;;
4837;SDS011;2433;48.768;9.154;2023-03-29T14:59:59;1.47;;;0.93;;
4837;SDS011;2433;48.768;9.154;2023-03-29T15:02:30;1.57;;;1.33;;
4837;SDS011;2433;48.768;9.154;2023-03-29T15:05:01;2.70;;;1.67;;
4837;SDS011;2433;48.768;9.154;2023-03-29T15:07:32;1.40;;;1.17;;
4837;SDS011;2433;48.768;9.154;2023-03-29T15:09:58;2.90;;;1.97;;
4837;SDS011;2433;48.768;9.154;2023-03-29T15:12:27;2.30;;;1.37;;
4837;SDS011;2433;48.768;9.154;2023-03-29T15:14:53;0.97;;;0.90;;
4837;SDS011;2433;48.768;9.154;2023-03-29T15:17:25;2.10;;;1.10;;
4837;SDS011;2433;48.768;9.154;2023-03-29T15:19:58;3.30;;;1.70;;
4837;SDS011;2433;48.768;9.154;2023-03-29T15:22:32;4.80;;;1.37;;
4837;SDS011;2433;48.768;9.154;2023-03-29T15:24:58;1.93;;;1.40;;
4837;SDS011;2433;48.768;9.154;2023-03-29T15:27:23;4.90;;;1.53;;
4837;SDS011;2433;48.768;9.154;2023-03-29T15:29:57;4.37;;;1.40;;
4837;SDS011;2433;48.768;9.154;2023-03-29T15:32:30;1.40;;;1.23;;
4837;SDS011;2433;48.768;9.154;2023-03-29T15:35:05;2.33;;;1.57;;
4837;SDS011;2433;48.768;9.154;2023-03-29T15:37:51;4.90;;;1.27;;
4837;SDS011;2433;48.768;9.154;2023-03-29T15:40:21;2.20;;;1.20;;
4837;SDS011;2433;48.768;9.154;2023-03-29T15:42:49;2.30;;;1.50;;
4837;SDS011;2433;48.768;9.154;2023-03-29T15:45:16;4.70;;;1.50;;
4837;SDS011;2433;48.768;9.154;2023-03-29T15:47:43;2.00;;;1.40;;
4837;SDS011;2433;48.768;9.154;2023-03-29T15:50:09;2.07;;;1.33;;
4837;SDS011;2433;48.768;9.154;2023-03-29T15:52:35;2.13;;;1.60;;
4837;SDS011;2433;48.768;9.154;2023-03-29T15:55:02;1.87;;;1.30;;
4837;SDS011;2433;48.768;9.154;2023-03-29T15:57:28;3.53;;;1.60;;
4837;SDS011;2433;48.768;9.154;2023-03-29T15:59:54;3.63;;;1.73;;
4837;SDS011;2433;48.768;9.154;2023-03-29T16:02:20;3.10;;;1.57;;
4837;SDS011;2433;48.768;9.154;2023-03-29T16:04:47;2.20;;;2.00;;
4837;SDS011;2433;48.768;9.154;2023-03-29T16:07:13;3.47;;;2.50;;
4837;SDS011;2433;48.768;9.154;2023-03-29T16:09:40;2.33;;;1.83;;
4837;SDS011;2433;48.768;9.154;2023-03-29T16:12:06;4.73;;;2.60;;
4837;SDS011;2433;48.768;9.154;2023-03-29T16:14:31;3.40;;;2.60;;
4837;SDS011;2433;48.768;9.154;2023-03-29T16:16:58;2.60;;;1.60;;
4837;SDS011;2433;48.768;9.154;2023-03-29T16:19:24;3.47;;;2.10;;
4837;SDS011;2433;48.768;9.154;2023-03-29T16:21:51;2.47;;;1.83;;
4837;SDS011;2433;48.768;9.154;2023-03-29T16:24:21;8.23;;;2.20;;
4837;SDS011;2433;48.768;9.154;2023-03-29T16:26:48;5.10;;;1.87;;
4837;SDS011;2433;48.768;9.154;2023-03-29T16:29:15;2.20;;;1.70;;
4837;SDS011;2433;48.768;9.154;2023-03-29T16:31:41;2.73;;;1.80;;
4837;SDS011;2433;48.768;9.154;2023-03-29T16:34:08;4.53;;;1.70;;
4837;SDS011;2433;48.768;9.154;2023-03-29T16:36:34;5.70;;;2.83;;
4837;SDS011;2433;48.768;9.154;2023-03-29T16:39:01;2.70;;;1.90;;
4837;SDS011;2433;48.768;9.154;2023-03-29T16:41:27;2.10;;;1.90;;
4837;SDS011;2433;48.768;9.154;2023-03-29T16:43:52;4.33;;;1.93;;
4837;SDS011;2433;48.768;9.154;2023-03-29T16:46:18;7.20;;;2.30;;
4837;SDS011;2433;48.768;9.154;2023-03-29T16:48:43;3.00;;;2.70;;
4837;SDS011;2433;48.768;9.154;2023-03-29T16:51:09;3.50;;;2.70;;
4837;SDS011;2433;48.768;9.154;2023-03-29T16:53:35;7.97;;;2.50;;
4837;SDS011;2433;48.768;9.154;2023-03-29T16:56:01;3.93;;;1.97;;
4837;SDS011;2433;48.768;9.154;2023-03-29T16:58:27;3.30;;;2.30;;
4837;SDS011;2433;48.768;9.154;2023-03-29T17:00:53;3.47;;;2.50;;
4837;SDS011;2433;48.768;9.154;2023-03-29T17:03:20;2.87;;;1.83;;
4837;SDS011;2433;48.768;9.154;2023-03-29T17:05:49;4.33;;;2.13;;
4837;SDS011;2433;48.768;9.154;2023-03-29T17:08:16;2.03;;;1.87;;
4837;SDS011;2433;48.768;9.154;2023-03-29T17:10:43;2.43;;;1.87;;
4837;SDS011;2433;48.768;9.154;2023-03-29T17:13:09;8.20;;;2.57;;
4837;SDS011;2433;48.768;9.154;2023-03-29T17:15:35;4.53;;;2.10;;
4837;SDS011;2433;48.768;9.154;2023-03-29T17:18:01;4.07;;;2.27;;
4837;SDS011;2433;48.768;9.154;2023-03-29T17:20:27;3.00;;;2.20;;
4837;SDS011;2433;48.768;9.154;2023-03-29T17:22:52;4.57;;;2.50;;
4837;SDS011;2433;48.768;9.154;2023-03-29T17:25:20;3.03;;;2.23;;
4837;SDS011;2433;48.768;9.154;2023-03-29T17:27:46;7.93;;;2.57;;
4837;SDS011;2433;48.768;9.154;2023-03-29T17:30:13;3.40;;;2.50;;
4837;SDS011;2433;48.768;9.154;2023-03-29T17:32:39;3.07;;;2.77;;